Terminal Aerodrome Forecast
Issued by NWS

Home | Current Version | Previous Version | Text Only | Print | Product List | Glossary Off
Versions: 1 2 3 4 5 6 7 8 9 10 11 12 13 14 15 16 17 18 19 20 21

220
FTUS43 KOAX 231725
TAFCDR
TAF
KCDR 231725Z 2318/2418 VRB05KT P6SM SKC
     FM232200 01015G25KT P6SM VCSH SCT050 BKN110
     FM240200 02019G28KT P6SM -RA OVC050
     FM240600 36016G24KT 2SM -RA OVC015
     FM241300 36020G30KT P6SM VCSH OVC015=

USA.gov is the U.S. government's official web portal to all federal, state and local government web resources and services.